createdAt,value
2018-08-14T00:00:33.391Z,99.90
2018-08-14T00:03:02.808Z,99.90
2018-08-14T00:05:31.132Z,99.90
2018-08-14T00:07:59.464Z,99.90
2018-08-14T00:10:27.993Z,99.90
2018-08-14T00:12:56.364Z,99.90
2018-08-14T00:15:24.692Z,99.90
2018-08-14T00:17:53.024Z,99.90
2018-08-14T00:20:22.256Z,99.90
2018-08-14T00:22:50.652Z,99.90
2018-08-14T00:25:18.955Z,99.90
2018-08-14T00:27:47.548Z,99.90
2018-08-14T00:30:18.488Z,99.90
2018-08-14T00:32:46.807Z,99.90
2018-08-14T00:35:15.116Z,99.90
2018-08-14T00:37:43.423Z,99.90
2018-08-14T00:40:18.091Z,99.90
2018-08-14T00:42:47.015Z,99.90
2018-08-14T00:45:17.961Z,99.90
2018-08-14T00:47:46.685Z,99.90
2018-08-14T00:50:15.563Z,99.90
2018-08-14T00:52:44.399Z,99.90
2018-08-14T00:55:13.831Z,99.90
2018-08-14T00:57:42.904Z,99.90
2018-08-14T01:00:19.777Z,99.90
2018-08-14T01:02:49.022Z,99.90
2018-08-14T01:05:17.996Z,99.90
2018-08-14T01:07:46.609Z,99.90
2018-08-14T01:10:15.187Z,99.90
2018-08-14T01:12:46.939Z,99.90
2018-08-14T01:15:16.684Z,99.90
2018-08-14T01:17:45.496Z,99.90
2018-08-14T01:20:14.688Z,99.90
2018-08-14T01:22:44.536Z,99.90
2018-08-14T01:25:12.855Z,99.90
2018-08-14T01:27:41.175Z,99.90
2018-08-14T01:30:12.660Z,99.90
2018-08-14T01:32:40.975Z,99.90
2018-08-14T01:35:09.604Z,99.90
2018-08-14T01:37:38.219Z,99.90
2018-08-14T01:40:06.548Z,99.90
2018-08-14T01:42:34.884Z,99.90
2018-08-14T01:45:03.290Z,99.90
2018-08-14T01:47:31.688Z,99.90
2018-08-14T01:49:59.940Z,99.90
2018-08-14T01:52:28.260Z,99.90
2018-08-14T01:54:56.579Z,99.90
2018-08-14T01:57:24.923Z,99.90
2018-08-14T01:59:53.213Z,99.90
2018-08-14T02:02:21.524Z,99.90
2018-08-14T02:04:49.835Z,99.90
2018-08-14T02:07:18.144Z,99.90
2018-08-14T02:09:46.730Z,99.90
2018-08-14T02:12:15.055Z,99.90
2018-08-14T02:14:43.659Z,99.90
2018-08-14T02:17:11.986Z,99.90
2018-08-14T02:19:40.284Z,99.90
2018-08-14T02:22:09.212Z,99.90
2018-08-14T02:24:37.533Z,99.90
2018-08-14T02:27:06.248Z,99.90
2018-08-14T02:29:34.571Z,99.90
2018-08-14T02:32:02.900Z,99.90
2018-08-14T02:34:31.217Z,99.90
2018-08-14T02:36:59.575Z,99.90
2018-08-14T02:39:27.881Z,99.90
2018-08-14T02:41:56.182Z,99.90
2018-08-14T02:44:24.536Z,99.90
2018-08-14T02:46:52.904Z,99.90
2018-08-14T02:49:21.303Z,99.90
2018-08-14T02:51:49.643Z,99.90
2018-08-14T02:54:17.967Z,99.90
2018-08-14T02:56:46.312Z,99.90
2018-08-14T02:59:14.652Z,99.90
2018-08-14T03:01:42.985Z,99.90
2018-08-14T03:04:11.316Z,99.90
2018-08-14T03:06:39.607Z,99.90
2018-08-14T03:09:09.056Z,99.90
2018-08-14T03:11:37.361Z,99.90
2018-08-14T03:14:05.873Z,99.90
2018-08-14T03:16:34.420Z,99.90
2018-08-14T03:19:03.044Z,99.90
2018-08-14T03:21:31.345Z,99.90
2018-08-14T03:24:00.033Z,99.90
2018-08-14T03:26:28.713Z,99.90
2018-08-14T03:28:57.057Z,99.90
2018-08-14T03:31:25.433Z,99.90
2018-08-14T03:33:54.200Z,99.90
2018-08-14T03:36:22.500Z,99.90
2018-08-14T03:38:50.832Z,99.90
2018-08-14T03:41:19.131Z,99.90
2018-08-14T03:43:47.448Z,99.90
2018-08-14T03:46:15.755Z,99.90
2018-08-14T03:48:44.088Z,99.90
2018-08-14T03:51:12.400Z,99.90
2018-08-14T03:53:40.721Z,99.90
2018-08-14T03:56:09.016Z,99.90
2018-08-14T03:58:37.360Z,99.90
2018-08-14T04:01:05.808Z,99.90
2018-08-14T04:03:34.133Z,99.90
2018-08-14T04:06:02.495Z,99.90
2018-08-14T04:08:30.808Z,99.90
2018-08-14T04:10:59.120Z,99.90
2018-08-14T04:13:27.432Z,99.90
2018-08-14T04:15:55.731Z,99.90
2018-08-14T04:18:24.044Z,99.90
2018-08-14T04:20:52.349Z,99.90
2018-08-14T04:23:20.659Z,99.90
2018-08-14T04:25:48.968Z,99.90
2018-08-14T04:28:17.288Z,99.90
2018-08-14T04:30:45.593Z,99.90
2018-08-14T04:33:13.913Z,99.90
2018-08-14T04:35:42.228Z,99.90
2018-08-14T04:38:10.556Z,99.90
2018-08-14T04:40:38.845Z,99.90
2018-08-14T04:43:07.156Z,99.90
2018-08-14T04:45:35.485Z,99.90
2018-08-14T04:48:03.800Z,99.90
2018-08-14T04:50:32.097Z,99.90
2018-08-14T04:53:00.423Z,99.90
2018-08-14T04:55:28.752Z,99.90
2018-08-14T04:58:02.636Z,99.90
2018-08-14T05:00:30.940Z,99.90
2018-08-14T05:02:59.236Z,99.90
2018-08-14T05:05:27.564Z,99.90
2018-08-14T05:07:55.856Z,99.90
2018-08-14T05:10:24.172Z,99.90
2018-08-14T05:12:52.476Z,99.90
2018-08-14T05:15:20.795Z,99.90
2018-08-14T05:17:49.088Z,99.90
2018-08-14T05:20:17.407Z,99.90
2018-08-14T05:22:45.692Z,99.90
2018-08-14T05:25:14.024Z,99.90
2018-08-14T05:27:42.342Z,99.90
2018-08-14T05:30:14.345Z,99.90
2018-08-14T05:32:42.636Z,99.90
2018-08-14T05:35:10.959Z,99.90
2018-08-14T05:37:39.295Z,99.90
2018-08-14T05:40:08.259Z,99.90
2018-08-14T05:42:36.636Z,99.90
2018-08-14T05:45:06.624Z,99.90
2018-08-14T05:47:34.968Z,99.90
2018-08-14T05:50:03.299Z,99.90
2018-08-14T05:52:31.583Z,99.90
2018-08-14T05:54:59.897Z,99.90
2018-08-14T05:57:28.220Z,99.90
2018-08-14T05:59:56.540Z,99.90
2018-08-14T06:02:24.844Z,99.90
2018-08-14T06:04:53.168Z,99.90
2018-08-14T06:07:21.478Z,99.90
2018-08-14T06:09:49.787Z,99.90
2018-08-14T06:12:18.084Z,99.90
2018-08-14T06:14:46.408Z,99.90
2018-08-14T06:17:14.703Z,99.90
2018-08-14T06:19:43.043Z,99.90
2018-08-14T06:22:11.364Z,99.90
2018-08-14T06:24:39.680Z,99.90
2018-08-14T06:27:07.988Z,99.90
2018-08-14T06:29:36.300Z,99.90
2018-08-14T06:32:04.700Z,99.90
2018-08-14T06:34:33.076Z,99.90
2018-08-14T06:37:01.508Z,99.90
2018-08-14T06:39:29.824Z,99.90
2018-08-14T06:41:58.128Z,99.90
2018-08-14T06:44:26.442Z,99.90
2018-08-14T06:46:54.754Z,99.90
2018-08-14T06:49:23.067Z,99.90
2018-08-14T06:51:51.367Z,99.90
2018-08-14T06:54:19.692Z,99.90
2018-08-14T06:56:47.995Z,99.90
2018-08-14T06:59:16.308Z,99.90
2018-08-14T07:01:44.600Z,99.90
2018-08-14T07:04:12.926Z,99.90
2018-08-14T07:06:41.228Z,99.90
2018-08-14T07:09:10.333Z,99.90
2018-08-14T07:11:38.652Z,99.90
2018-08-14T07:14:08.827Z,99.90
2018-08-14T07:16:38.492Z,99.90
2018-08-14T07:19:07.873Z,99.90
2018-08-14T07:21:36.267Z,99.90
2018-08-14T07:24:04.693Z,99.90
2018-08-14T07:26:33.024Z,99.90
2018-08-14T07:29:01.336Z,99.90
2018-08-14T07:31:29.647Z,99.90
2018-08-14T07:33:57.951Z,99.90
2018-08-14T07:36:26.622Z,99.90
2018-08-14T07:38:54.920Z,99.90
2018-08-14T07:41:26.021Z,99.90
2018-08-14T07:43:55.456Z,99.90
2018-08-14T07:46:23.772Z,99.90
2018-08-14T07:48:52.140Z,99.90
2018-08-14T07:51:20.571Z,99.90
2018-08-14T07:53:49.119Z,99.90
2018-08-14T07:56:17.441Z,99.90
2018-08-14T07:58:45.761Z,99.90
2018-08-14T08:01:14.104Z,99.90
2018-08-14T08:03:42.480Z,99.90
2018-08-14T08:06:10.823Z,99.90
2018-08-14T08:08:39.117Z,99.90
2018-08-14T08:11:07.444Z,99.90
2018-08-14T08:13:35.744Z,99.90
2018-08-14T08:16:04.076Z,99.90
2018-08-14T08:18:32.637Z,99.90
2018-08-14T08:21:00.886Z,99.90
2018-08-14T08:23:29.195Z,99.90
2018-08-14T08:25:57.525Z,99.90
2018-08-14T08:28:25.828Z,99.90
2018-08-14T08:30:54.143Z,99.90
2018-08-14T08:33:22.456Z,99.90
2018-08-14T08:35:50.785Z,99.90
2018-08-14T08:38:19.084Z,99.90
2018-08-14T08:40:47.412Z,99.90
2018-08-14T08:43:15.728Z,99.90
2018-08-14T08:45:44.053Z,99.90
2018-08-14T08:48:16.815Z,99.90
2018-08-14T08:50:45.204Z,99.90
2018-08-14T08:53:14.819Z,99.90
2018-08-14T08:55:43.152Z,99.90
2018-08-14T08:58:11.562Z,99.90
2018-08-14T09:00:39.805Z,99.90
2018-08-14T09:03:08.169Z,99.90
2018-08-14T09:05:36.682Z,99.90
2018-08-14T09:08:06.029Z,99.90
2018-08-14T09:10:34.336Z,99.90
2018-08-14T09:13:02.640Z,99.90
2018-08-14T09:15:30.987Z,99.90
2018-08-14T09:17:59.283Z,99.90
2018-08-14T09:20:27.616Z,99.90
2018-08-14T09:22:55.917Z,99.90
2018-08-14T09:25:24.252Z,99.90
2018-08-14T09:27:52.547Z,99.90
2018-08-14T09:30:20.887Z,99.90
2018-08-14T09:32:49.192Z,99.90
2018-08-14T09:35:17.888Z,99.90
2018-08-14T09:37:46.263Z,99.90
2018-08-14T09:40:18.456Z,99.90
2018-08-14T09:42:52.119Z,99.90
2018-08-14T09:45:20.565Z,99.90
2018-08-14T09:47:48.864Z,99.90
2018-08-14T09:50:19.640Z,99.90
2018-08-14T09:52:48.632Z,99.90
2018-08-14T09:55:17.959Z,99.90
2018-08-14T09:57:47.365Z,99.90
2018-08-14T10:00:23.305Z,99.90
2018-08-14T10:02:57.264Z,99.90
2018-08-14T10:05:31.001Z,99.90
2018-08-14T10:08:04.649Z,99.90
2018-08-14T10:10:33.011Z,99.90
2018-08-14T10:13:01.333Z,99.90
2018-08-14T10:15:30.488Z,99.90
2018-08-14T10:17:59.044Z,99.90
2018-08-14T10:20:27.397Z,99.90
2018-08-14T10:22:56.735Z,99.90
2018-08-14T10:25:25.044Z,99.90
2018-08-14T10:27:53.390Z,99.90
2018-08-14T10:30:21.702Z,99.90
2018-08-14T10:32:50.022Z,99.90
2018-08-14T10:35:18.323Z,99.90
2018-08-14T10:37:46.652Z,99.90
2018-08-14T10:40:15.388Z,99.90
2018-08-14T10:42:43.708Z,99.90
2018-08-14T10:45:15.668Z,99.90
2018-08-14T10:47:44.651Z,99.90
2018-08-14T10:50:15.300Z,99.90
2018-08-14T10:52:44.532Z,99.90
2018-08-14T10:55:12.976Z,99.90
2018-08-14T10:57:41.413Z,99.90
2018-08-14T11:00:27.749Z,99.90
2018-08-14T11:02:56.203Z,99.90
2018-08-14T11:05:24.576Z,99.90
2018-08-14T11:07:53.425Z,99.90
2018-08-14T11:10:23.957Z,99.90
2018-08-14T11:12:52.559Z,99.90
2018-08-14T11:15:20.860Z,99.90
2018-08-14T11:17:49.176Z,99.90
2018-08-14T11:20:19.500Z,99.90
2018-08-14T11:22:48.479Z,99.90
2018-08-14T11:25:16.960Z,99.90
2018-08-14T11:27:45.274Z,99.90
2018-08-14T11:30:15.803Z,99.90
2018-08-14T11:32:44.156Z,99.90
2018-08-14T11:35:12.465Z,99.90
2018-08-14T11:37:41.384Z,99.90
2018-08-14T11:40:10.868Z,99.90
2018-08-14T11:42:39.188Z,99.90
2018-08-14T11:45:21.599Z,99.90
2018-08-14T11:47:49.950Z,99.90
2018-08-14T11:50:19.204Z,99.90
2018-08-14T11:52:49.253Z,99.90
2018-08-14T11:55:18.655Z,99.90
2018-08-14T11:57:47.775Z,99.90
2018-08-14T12:00:24.816Z,99.90
2018-08-14T12:02:54.171Z,99.90
2018-08-14T12:05:22.472Z,99.90
2018-08-14T12:07:50.789Z,99.90
2018-08-14T12:10:19.339Z,99.90
2018-08-14T12:12:47.741Z,99.90
2018-08-14T12:15:16.804Z,99.90
2018-08-14T12:17:46.175Z,99.90
2018-08-14T12:20:16.696Z,99.90
2018-08-14T12:22:45.032Z,99.90
2018-08-14T12:25:14.912Z,99.90
2018-08-14T12:27:43.308Z,99.90
2018-08-14T12:30:17.020Z,99.90
2018-08-14T12:32:45.463Z,99.90
2018-08-14T12:35:13.780Z,99.90
2018-08-14T12:37:42.161Z,99.90
2018-08-14T12:40:11.305Z,99.90
2018-08-14T12:42:39.732Z,99.90
2018-08-14T12:45:12.194Z,99.80
2018-08-14T12:47:40.559Z,99.90
2018-08-14T12:50:09.098Z,99.90
2018-08-14T12:52:37.414Z,99.90
2018-08-14T12:55:05.776Z,99.90
2018-08-14T12:57:34.104Z,99.80
2018-08-14T13:00:02.416Z,99.40
2018-08-14T13:02:30.728Z,99.70
2018-08-14T13:04:59.028Z,99.50
2018-08-14T13:07:27.352Z,99.80
2018-08-14T13:09:55.657Z,99.60
2018-08-14T13:12:23.980Z,99.90
2018-08-14T13:14:53.321Z,99.90
2018-08-14T13:20:53.363Z,99.90
2018-08-14T13:23:21.686Z,99.90
2018-08-14T13:25:49.975Z,99.90
2018-08-14T13:28:18.315Z,99.80
2018-08-14T13:30:46.623Z,99.90
2018-08-14T13:33:14.941Z,99.90
2018-08-14T13:35:43.260Z,99.90
2018-08-14T13:38:11.594Z,99.90
2018-08-14T13:40:39.884Z,99.90
2018-08-14T13:43:08.300Z,99.80
2018-08-14T13:45:36.602Z,99.90
2018-08-14T13:48:04.946Z,99.90
2018-08-14T13:50:33.243Z,99.80
2018-08-14T13:53:01.577Z,99.90
2018-08-14T13:55:29.884Z,99.70
2018-08-14T13:57:58.234Z,99.90
2018-08-14T14:00:27.835Z,99.90
2018-08-14T14:02:56.195Z,99.90
2018-08-14T14:05:24.492Z,99.70
2018-08-14T14:07:52.812Z,99.40
2018-08-14T14:10:21.712Z,99.20
2018-08-14T14:12:50.037Z,99.30
2018-08-14T14:15:25.410Z,99.70
2018-08-14T14:17:54.797Z,99.90
2018-08-14T14:20:25.719Z,99.90
2018-08-14T14:22:54.186Z,99.90
2018-08-14T14:25:22.547Z,99.90
2018-08-14T14:27:50.875Z,99.90
2018-08-14T14:30:19.487Z,99.90
2018-08-14T14:32:47.859Z,99.90
2018-08-14T14:35:16.150Z,99.90
2018-08-14T14:37:44.628Z,99.90
2018-08-14T14:40:15.727Z,99.90
2018-08-14T14:42:44.108Z,99.90
2018-08-14T14:45:13.734Z,99.90
2018-08-14T14:47:43.268Z,99.90
2018-08-14T14:50:11.735Z,99.90
2018-08-14T14:52:40.765Z,99.90
2018-08-14T14:55:12.239Z,99.90
2018-08-14T14:57:41.119Z,99.90
2018-08-14T15:00:14.780Z,99.90
2018-08-14T15:02:43.627Z,99.90
2018-08-14T15:05:11.979Z,99.90
2018-08-14T15:07:40.407Z,99.90
2018-08-14T15:10:09.249Z,99.90
2018-08-14T15:12:37.540Z,99.90
2018-08-14T15:15:06.440Z,99.90
2018-08-14T15:17:34.747Z,99.90
2018-08-14T15:20:03.150Z,99.90
2018-08-14T15:22:31.434Z,99.90
2018-08-14T15:24:59.784Z,99.90
2018-08-14T15:27:28.091Z,99.90
2018-08-14T15:30:06.625Z,99.90
2018-08-14T15:32:34.925Z,99.90
2018-08-14T15:35:03.252Z,99.90
2018-08-14T15:37:31.552Z,99.90
2018-08-14T15:39:59.872Z,99.90
2018-08-14T15:42:28.165Z,99.90
2018-08-14T15:44:56.488Z,99.90
2018-08-14T15:47:24.780Z,99.90
2018-08-14T15:49:53.381Z,99.90
2018-08-14T15:52:21.640Z,99.90
2018-08-14T15:54:49.952Z,99.90
2018-08-14T15:57:18.293Z,99.90
2018-08-14T15:59:46.616Z,99.90
2018-08-14T16:02:14.960Z,99.90
2018-08-14T16:04:43.300Z,99.90
2018-08-14T16:07:11.612Z,99.90
2018-08-14T16:09:39.936Z,99.90
2018-08-14T16:12:08.264Z,99.90
2018-08-14T16:14:36.574Z,99.90
2018-08-14T16:17:05.460Z,99.90
2018-08-14T16:19:33.823Z,99.90
2018-08-14T16:22:02.148Z,99.90
2018-08-14T16:24:30.613Z,99.90
2018-08-14T16:26:59.364Z,99.90
2018-08-14T16:29:27.762Z,99.90
2018-08-14T16:31:56.069Z,99.90
2018-08-14T16:34:24.376Z,99.90
2018-08-14T16:36:52.692Z,99.90
2018-08-14T16:39:21.008Z,99.90
2018-08-14T16:41:49.312Z,99.90
2018-08-14T16:44:17.632Z,99.90
2018-08-14T16:46:45.921Z,99.90
2018-08-14T16:49:14.259Z,99.90
2018-08-14T16:51:42.555Z,99.90
2018-08-14T16:54:10.888Z,99.90
2018-08-14T16:56:39.188Z,99.90
2018-08-14T16:59:07.567Z,99.90
2018-08-14T17:01:35.903Z,99.90
2018-08-14T17:04:04.256Z,99.90
2018-08-14T17:06:32.572Z,99.90
2018-08-14T17:09:01.015Z,99.90
2018-08-14T17:11:29.358Z,99.90
2018-08-14T17:13:57.672Z,99.90
2018-08-14T17:16:25.976Z,99.90
2018-08-14T17:18:54.329Z,99.90
2018-08-14T17:21:21.625Z,99.90
2018-08-14T17:23:49.942Z,99.90
2018-08-14T17:26:18.291Z,99.90
2018-08-14T17:28:46.584Z,99.90
2018-08-14T17:31:14.921Z,99.90
2018-08-14T17:33:43.275Z,99.90
2018-08-14T17:36:11.596Z,99.90
2018-08-14T17:38:39.933Z,99.90
2018-08-14T17:41:08.283Z,99.90
2018-08-14T17:43:36.579Z,99.90
2018-08-14T17:46:04.978Z,99.90
2018-08-14T17:48:33.276Z,99.90
2018-08-14T17:51:02.107Z,99.90
2018-08-14T17:53:30.399Z,99.90
2018-08-14T17:55:58.771Z,99.90
2018-08-14T17:58:27.170Z,99.90
2018-08-14T18:00:55.447Z,99.90
2018-08-14T18:03:23.749Z,99.90
2018-08-14T18:05:52.156Z,99.90
2018-08-14T18:08:20.463Z,99.90
2018-08-14T18:10:48.835Z,99.90
2018-08-14T18:13:17.152Z,99.90
2018-08-14T18:15:45.643Z,99.90
2018-08-14T18:18:13.952Z,99.90
2018-08-14T18:20:42.267Z,99.90
2018-08-14T18:23:10.925Z,99.90
2018-08-14T18:25:39.366Z,99.90
2018-08-14T18:28:07.691Z,99.90
2018-08-14T18:30:36.045Z,99.90
2018-08-14T18:33:04.356Z,99.90
2018-08-14T18:35:32.687Z,99.90
2018-08-14T18:38:00.984Z,99.90
2018-08-14T18:40:29.304Z,99.90
2018-08-14T18:42:57.610Z,99.90
2018-08-14T18:45:25.928Z,99.90
2018-08-14T18:47:54.319Z,99.90
2018-08-14T18:50:22.628Z,99.90
2018-08-14T18:52:50.928Z,99.90
2018-08-14T18:55:19.741Z,99.90
2018-08-14T18:57:48.932Z,99.90
2018-08-14T19:00:20.059Z,99.90
2018-08-14T19:02:49.601Z,99.90
2018-08-14T19:05:18.068Z,99.90
2018-08-14T19:07:46.455Z,99.90
2018-08-14T19:10:15.831Z,99.90
2018-08-14T19:12:45.245Z,99.90
2018-08-14T19:15:18.789Z,99.90
2018-08-14T19:17:47.096Z,99.90
2018-08-14T19:20:15.462Z,99.90
2018-08-14T19:22:44.404Z,99.90
2018-08-14T19:25:12.744Z,99.90
2018-08-14T19:27:41.729Z,99.90
2018-08-14T19:30:11.584Z,99.90
2018-08-14T19:32:40.139Z,99.90
2018-08-14T19:35:09.917Z,99.90
2018-08-14T19:37:38.710Z,99.90
2018-08-14T19:40:11.336Z,99.90
2018-08-14T19:42:39.719Z,99.90
2018-08-14T19:45:08.776Z,99.90
2018-08-14T19:47:37.095Z,99.90
2018-08-14T19:50:06.285Z,99.90
2018-08-14T19:52:35.055Z,99.90
2018-08-14T19:55:03.453Z,99.90
2018-08-14T19:57:31.909Z,99.90
2018-08-14T20:00:00.142Z,99.90
2018-08-14T20:02:28.488Z,99.90
2018-08-14T20:04:56.801Z,99.90
2018-08-14T20:07:25.233Z,99.90
2018-08-14T20:09:53.548Z,99.90
2018-08-14T20:12:21.879Z,99.90
2018-08-14T20:14:50.168Z,99.90
2018-08-14T20:17:18.485Z,99.90
2018-08-14T20:19:46.780Z,99.90
2018-08-14T20:22:16.432Z,99.90
2018-08-14T20:24:45.476Z,99.90
2018-08-14T20:27:14.192Z,99.90
2018-08-14T20:29:42.684Z,99.90
2018-08-14T20:32:11.124Z,99.90
2018-08-14T20:34:39.973Z,99.90
2018-08-14T20:37:08.299Z,99.90
2018-08-14T20:39:36.712Z,99.90
2018-08-14T20:42:05.036Z,99.90
2018-08-14T20:44:33.341Z,99.90
2018-08-14T20:47:01.660Z,99.90
2018-08-14T20:49:30.010Z,99.90
2018-08-14T20:51:58.352Z,99.90
2018-08-14T20:54:26.643Z,99.90
2018-08-14T20:56:54.992Z,99.90
2018-08-14T20:59:23.305Z,99.90
2018-08-14T21:01:51.620Z,99.90
2018-08-14T21:04:19.940Z,99.90
2018-08-14T21:06:48.663Z,99.90
2018-08-14T21:09:16.969Z,99.90
2018-08-14T21:11:45.319Z,99.90
2018-08-14T21:14:13.640Z,99.90
2018-08-14T21:16:41.967Z,99.90
2018-08-14T21:19:10.264Z,99.90
2018-08-14T21:21:38.580Z,99.90
2018-08-14T21:24:06.881Z,99.90
2018-08-14T21:26:35.203Z,99.90
2018-08-14T21:29:03.536Z,99.90
2018-08-14T21:31:31.844Z,99.90
2018-08-14T21:34:00.144Z,99.90
2018-08-14T21:36:28.452Z,99.90
2018-08-14T21:38:56.751Z,99.90
2018-08-14T21:41:25.073Z,99.90
2018-08-14T21:43:53.423Z,99.90
2018-08-14T21:46:21.728Z,99.90
2018-08-14T21:48:50.033Z,99.90
2018-08-14T21:51:18.340Z,99.90
2018-08-14T21:53:47.515Z,99.90
2018-08-14T21:56:15.827Z,99.90
2018-08-14T21:58:44.142Z,99.90
2018-08-14T22:01:13.167Z,99.90
2018-08-14T22:03:43.494Z,99.90
2018-08-14T22:06:12.726Z,99.90
2018-08-14T22:08:41.088Z,99.90
2018-08-14T22:11:09.584Z,99.90
2018-08-14T22:13:38.088Z,99.90
2018-08-14T22:16:06.520Z,99.90
2018-08-14T22:18:34.852Z,99.90
2018-08-14T22:21:03.175Z,99.90
2018-08-14T22:23:31.528Z,99.90
2018-08-14T22:25:59.892Z,99.90
2018-08-14T22:28:28.201Z,99.90
2018-08-14T22:30:56.566Z,99.90
2018-08-14T22:33:24.869Z,99.90
2018-08-14T22:35:53.276Z,99.90
2018-08-14T22:38:21.596Z,99.90
2018-08-14T22:40:49.916Z,99.90
2018-08-14T22:43:18.316Z,99.90
2018-08-14T22:45:46.617Z,99.90
2018-08-14T22:48:14.976Z,99.90
2018-08-14T22:50:43.286Z,99.90
2018-08-14T22:53:11.616Z,99.90
2018-08-14T22:55:39.916Z,99.90
2018-08-14T22:58:08.270Z,99.90
2018-08-14T23:00:36.575Z,99.90
2018-08-14T23:03:04.900Z,99.90
2018-08-14T23:05:33.204Z,99.90
2018-08-14T23:08:01.517Z,99.90
2018-08-14T23:10:29.820Z,99.90
2018-08-14T23:12:58.189Z,99.90
2018-08-14T23:15:26.497Z,99.90
2018-08-14T23:17:54.824Z,99.90
2018-08-14T23:20:23.146Z,99.90
2018-08-14T23:22:51.456Z,99.90
2018-08-14T23:25:19.747Z,99.90
2018-08-14T23:27:48.068Z,99.90
2018-08-14T23:30:16.407Z,99.90
2018-08-14T23:32:45.101Z,99.90
2018-08-14T23:35:13.395Z,99.90
2018-08-14T23:37:41.700Z,99.90
2018-08-14T23:40:11.885Z,99.90
2018-08-14T23:42:40.220Z,99.90
2018-08-14T23:45:09.181Z,99.90
2018-08-14T23:47:37.544Z,99.90
2018-08-14T23:50:07.813Z,99.90
2018-08-14T23:52:36.139Z,99.90
2018-08-14T23:55:04.978Z,99.90
2018-08-14T23:57:33.336Z,99.90
